createdAt,value
2018-08-23T00:00:37.229Z,35.80
2018-08-23T00:03:15.635Z,34.93
2018-08-23T00:05:49.554Z,36.50
2018-08-23T00:08:17.792Z,34.50
2018-08-23T00:10:46.307Z,35.40
2018-08-23T00:13:14.610Z,34.93
2018-08-23T00:15:42.782Z,33.50
2018-08-23T00:18:11.002Z,33.37
2018-08-23T00:20:39.219Z,33.27
2018-08-23T00:23:07.899Z,33.83
2018-08-23T00:25:37.645Z,32.83
2018-08-23T00:28:06.286Z,35.50
2018-08-23T00:30:34.893Z,35.80
2018-08-23T00:33:04.082Z,34.73
2018-08-23T00:35:33.075Z,35.83
2018-08-23T00:38:01.841Z,38.73
2018-08-23T00:40:30.087Z,31.30
2018-08-23T00:43:04.330Z,35.60
2018-08-23T00:45:32.530Z,36.80
2018-08-23T00:48:00.827Z,35.20
2018-08-23T00:51:02.465Z,34.30
2018-08-23T00:53:34.936Z,36.73
2018-08-23T00:56:23.057Z,35.10
2018-08-23T00:58:54.842Z,35.77
2018-08-23T01:01:23.047Z,36.80
2018-08-23T01:03:51.663Z,37.53
2018-08-23T01:06:22.856Z,35.70
2018-08-23T01:08:51.075Z,36.13
2018-08-23T01:11:19.288Z,37.57
2018-08-23T01:13:47.579Z,35.90
2018-08-23T01:16:16.094Z,35.90
2018-08-23T01:18:44.303Z,37.63
2018-08-23T01:21:12.521Z,38.83
2018-08-23T01:23:42.707Z,39.00
2018-08-23T01:26:10.943Z,35.87
2018-08-23T01:28:39.144Z,37.53
2018-08-23T01:31:22.832Z,34.40
2018-08-23T01:33:55.617Z,36.37
2018-08-23T01:36:39.380Z,35.10
2018-08-23T01:39:09.468Z,35.27
2018-08-23T01:41:37.661Z,36.80
2018-08-23T01:44:05.888Z,34.30
2018-08-23T01:46:41.372Z,35.03
2018-08-23T01:49:09.643Z,33.80
2018-08-23T01:51:37.895Z,35.13
2018-08-23T01:54:06.118Z,36.10
2018-08-23T01:56:34.343Z,36.30
2018-08-23T01:59:02.882Z,34.30
2018-08-23T02:01:31.094Z,36.73
2018-08-23T02:03:59.310Z,36.27
2018-08-23T02:06:32.862Z,36.23
2018-08-23T02:09:01.103Z,40.37
2018-08-23T02:11:29.302Z,39.70
2018-08-23T02:13:57.541Z,39.70
2018-08-23T02:16:25.793Z,37.97
2018-08-23T02:18:54.009Z,37.47
2018-08-23T02:21:22.231Z,41.73
2018-08-23T02:23:52.282Z,41.37
2018-08-23T02:26:20.486Z,40.20
2018-08-23T02:28:49.770Z,39.87
2018-08-23T02:31:18.558Z,36.40
2018-08-23T02:33:46.857Z,37.63
2018-08-23T02:36:18.363Z,37.20
2018-08-23T02:38:48.410Z,39.43
2018-08-23T02:41:16.942Z,38.87
2018-08-23T02:43:45.631Z,39.27
2018-08-23T02:46:13.864Z,39.10
2018-08-23T02:48:42.056Z,39.43
2018-08-23T02:51:10.247Z,39.07
2018-08-23T02:53:40.595Z,39.77
2018-08-23T02:56:10.993Z,37.70
2018-08-23T02:58:48.868Z,35.40
2018-08-23T03:01:17.067Z,37.30
2018-08-23T03:04:00.130Z,37.83
2018-08-23T03:06:49.397Z,40.27
2018-08-23T03:09:26.391Z,42.63
2018-08-23T03:11:55.828Z,41.60
2018-08-23T03:14:24.995Z,44.47
2018-08-23T03:17:34.080Z,39.37
2018-08-23T03:20:23.156Z,43.50
2018-08-23T03:22:53.314Z,46.97
2018-08-23T03:25:22.531Z,48.00
2018-08-23T03:27:51.979Z,47.73
2018-08-23T03:30:20.603Z,44.87
2018-08-23T03:32:48.835Z,42.80
2018-08-23T03:35:17.102Z,47.37
2018-08-23T03:37:45.342Z,49.43
2018-08-23T03:40:14.625Z,49.73
2018-08-23T03:42:42.925Z,53.20
2018-08-23T03:45:16.677Z,50.43
2018-08-23T03:47:55.187Z,49.93
2018-08-23T03:50:23.490Z,53.63
2018-08-23T03:52:53.866Z,54.10
2018-08-23T03:55:23.375Z,52.40
2018-08-23T03:57:52.757Z,52.27
2018-08-23T04:00:26.751Z,54.20
2018-08-23T04:02:55.150Z,52.57
2018-08-23T04:05:23.393Z,53.90
2018-08-23T04:07:51.613Z,55.63
2018-08-23T04:10:19.835Z,52.80
2018-08-23T04:12:48.110Z,48.23
2018-08-23T04:15:19.321Z,49.37
2018-08-23T04:17:48.217Z,48.17
2018-08-23T04:20:16.583Z,48.23
2018-08-23T04:22:44.893Z,50.30
2018-08-23T04:25:13.111Z,46.70
2018-08-23T04:27:41.334Z,40.53
2018-08-23T04:30:09.972Z,37.67
2018-08-23T04:32:41.207Z,39.77
2018-08-23T04:35:11.469Z,38.97
2018-08-23T04:37:39.765Z,40.87
2018-08-23T04:40:08.735Z,38.17
2018-08-23T04:42:37.043Z,40.10
2018-08-23T04:45:09.939Z,38.83
2018-08-23T04:47:45.376Z,41.90
2018-08-23T04:50:13.855Z,40.27
2018-08-23T04:52:42.336Z,41.00
2018-08-23T04:55:10.589Z,37.27
2018-08-23T04:57:38.832Z,45.07
2018-08-23T05:00:07.506Z,46.53
2018-08-23T05:02:35.783Z,46.47
2018-08-23T05:05:04.087Z,49.07
2018-08-23T05:07:32.325Z,49.30
2018-08-23T05:10:01.116Z,49.43
2018-08-23T05:12:29.332Z,49.27
2018-08-23T05:14:57.613Z,49.83
2018-08-23T05:17:26.315Z,50.40
2018-08-23T05:19:54.558Z,49.13
2018-08-23T05:22:22.767Z,56.50
2018-08-23T05:24:52.803Z,53.30
2018-08-23T05:27:21.011Z,54.27
2018-08-23T05:29:49.679Z,52.60
2018-08-23T05:32:17.879Z,54.80
2018-08-23T05:34:46.140Z,50.83
2018-08-23T05:37:14.448Z,51.87
2018-08-23T05:39:51.227Z,49.87
2018-08-23T05:42:30.888Z,50.40
2018-08-23T05:44:59.305Z,50.63
2018-08-23T05:47:27.655Z,51.67
2018-08-23T05:49:55.962Z,52.07
2018-08-23T05:52:24.174Z,49.67
2018-08-23T05:54:52.554Z,49.33
2018-08-23T05:57:20.786Z,51.63
2018-08-23T05:59:49.035Z,47.07
2018-08-23T06:02:17.275Z,47.90
2018-08-23T06:04:45.521Z,45.27
2018-08-23T06:07:13.720Z,48.60
2018-08-23T06:09:48.613Z,46.73
2018-08-23T06:12:16.851Z,47.30
2018-08-23T06:14:45.287Z,45.00
2018-08-23T06:17:13.505Z,45.90
2018-08-23T06:19:42.126Z,45.40
2018-08-23T06:22:10.349Z,44.30
2018-08-23T06:24:38.570Z,43.77
2018-08-23T06:27:06.762Z,41.80
2018-08-23T06:29:35.555Z,44.47
2018-08-23T06:32:08.035Z,43.00
2018-08-23T06:34:46.212Z,39.17
2018-08-23T06:37:14.950Z,42.50
2018-08-23T06:39:43.366Z,36.63
2018-08-23T06:42:11.574Z,39.20
2018-08-23T06:44:45.489Z,36.67
2018-08-23T06:47:20.024Z,37.60
2018-08-23T06:49:49.509Z,29.23
2018-08-23T06:52:49.765Z,36.77
2018-08-23T06:55:23.233Z,39.00
2018-08-23T06:57:55.689Z,30.90
2018-08-23T07:00:26.336Z,36.53
2018-08-23T07:02:54.600Z,36.57
2018-08-23T07:05:23.076Z,36.70
2018-08-23T07:07:51.585Z,34.50
2018-08-23T07:10:19.776Z,35.00
2018-08-23T07:12:48.119Z,36.90
2018-08-23T07:15:16.464Z,32.10
2018-08-23T07:17:44.919Z,31.83
2018-08-23T07:20:14.998Z,35.73
2018-08-23T07:22:43.280Z,34.30
2018-08-23T07:25:13.110Z,38.30
2018-08-23T07:27:41.360Z,31.77
2018-08-23T07:30:13.628Z,35.60
2018-08-23T07:32:42.707Z,33.07
2018-08-23T07:35:11.849Z,32.43
2018-08-23T07:37:41.363Z,34.87
2018-08-23T07:40:18.672Z,36.10
2018-08-23T07:42:48.267Z,38.63
2018-08-23T07:45:16.697Z,33.90
2018-08-23T07:47:47.180Z,34.83
2018-08-23T07:50:15.482Z,37.20
2018-08-23T07:52:46.226Z,30.60
2018-08-23T07:55:14.436Z,32.43
2018-08-23T07:57:43.025Z,35.40
2018-08-23T08:00:37.159Z,37.37
2018-08-23T08:10:29.557Z,33.47
2018-08-23T08:12:57.843Z,38.37
2018-08-23T08:15:26.063Z,40.73
2018-08-23T08:17:54.284Z,43.50
2018-08-23T08:20:22.520Z,41.67
2018-08-23T08:22:50.812Z,37.60
2018-08-23T08:25:19.823Z,45.27
2018-08-23T08:27:48.989Z,41.73
2018-08-23T08:30:19.434Z,46.90
2018-08-23T08:32:47.704Z,48.00
2018-08-23T08:35:19.142Z,38.57
2018-08-23T08:37:48.555Z,46.60
2018-08-23T08:40:23.711Z,46.87
2018-08-23T08:42:51.986Z,44.43
2018-08-23T08:45:20.403Z,46.10
2018-08-23T08:47:48.923Z,43.63
2018-08-23T08:50:17.211Z,47.10
2018-08-23T08:52:45.445Z,46.80
2018-08-23T08:55:15.299Z,41.70
2018-08-23T08:57:45.269Z,48.77
2018-08-23T09:00:13.491Z,43.43
2018-08-23T09:02:41.770Z,47.50
2018-08-23T09:05:10.855Z,46.67
2018-08-23T09:07:40.772Z,49.00
2018-08-23T09:10:09.038Z,49.63
2018-08-23T09:12:51.795Z,41.33
2018-08-23T09:15:20.200Z,46.93
2018-08-23T09:17:48.457Z,46.63
2018-08-23T09:20:18.698Z,37.87
2018-08-23T09:22:54.915Z,46.33
2018-08-23T09:25:28.437Z,49.20
2018-08-23T09:27:57.122Z,43.53
2018-08-23T09:30:30.482Z,46.27
2018-08-23T09:33:03.003Z,41.67
2018-08-23T09:35:32.202Z,45.77
2018-08-23T09:38:01.924Z,38.50
2018-08-23T09:40:30.383Z,35.27
2018-08-23T09:43:02.869Z,37.80
2018-08-23T09:45:32.537Z,31.23
2018-08-23T09:48:00.779Z,39.13
2018-08-23T09:50:29.089Z,29.43
2018-08-23T09:52:57.504Z,35.83
2018-08-23T09:55:29.375Z,39.70
2018-08-23T09:57:57.848Z,37.30
2018-08-23T10:00:31.477Z,37.50
2018-08-23T10:05:10.969Z,34.50
2018-08-23T10:07:44.428Z,38.07
2018-08-23T10:10:21.078Z,40.43
2018-08-23T10:12:54.696Z,38.70
2018-08-23T10:15:28.413Z,28.53
2018-08-23T10:18:02.115Z,36.27
2018-08-23T10:20:35.791Z,34.00
2018-08-23T10:23:09.503Z,31.90
2018-08-23T10:25:41.644Z,32.63
2018-08-23T10:28:11.105Z,34.53
2018-08-23T10:30:39.380Z,36.50
2018-08-23T10:33:07.671Z,31.40
2018-08-23T10:35:36.507Z,31.20
2018-08-23T10:38:05.137Z,29.23
2018-08-23T10:40:33.423Z,26.10
2018-08-23T10:43:01.695Z,21.70
2018-08-23T10:45:29.952Z,25.73
2018-08-23T10:48:03.627Z,27.40
2018-08-23T10:50:31.867Z,26.00
2018-08-23T10:53:00.100Z,29.60
2018-08-23T10:55:28.475Z,33.10
2018-08-23T10:57:56.718Z,30.07
2018-08-23T11:00:25.011Z,30.30
2018-08-23T11:02:53.196Z,29.90
2018-08-23T11:05:21.447Z,28.63
2018-08-23T11:07:55.006Z,29.97
2018-08-23T11:10:28.619Z,28.13
2018-08-23T11:13:02.191Z,24.20
2018-08-23T11:15:30.508Z,24.00
2018-08-23T11:18:04.236Z,18.80
2018-08-23T11:20:48.252Z,23.93
2018-08-23T11:23:18.762Z,21.53
2018-08-23T11:25:46.994Z,23.43
2018-08-23T11:28:21.338Z,22.90
2018-08-23T11:30:49.995Z,21.50
2018-08-23T11:33:18.244Z,23.80
2018-08-23T11:35:46.658Z,23.10
2018-08-23T11:38:14.900Z,22.90
2018-08-23T11:40:43.144Z,19.47
2018-08-23T11:43:11.374Z,22.10
2018-08-23T11:45:39.582Z,22.13
2018-08-23T11:48:07.852Z,21.20
2018-08-23T11:50:36.117Z,19.40
2018-08-23T11:53:04.357Z,19.13
2018-08-23T11:55:32.596Z,20.23
2018-08-23T11:58:00.854Z,21.17
2018-08-23T12:00:29.112Z,21.10
2018-08-23T12:02:57.359Z,19.90
2018-08-23T12:05:25.624Z,18.70
2018-08-23T12:07:54.844Z,19.07
2018-08-23T12:10:24.195Z,18.93
2018-08-23T12:12:53.799Z,21.63
2018-08-23T12:15:28.332Z,21.30
2018-08-23T12:17:57.005Z,21.50
2018-08-23T12:20:25.223Z,19.13
2018-08-23T12:22:53.499Z,20.23
2018-08-23T12:25:21.747Z,20.67
2018-08-23T12:27:56.380Z,22.70
2018-08-23T12:30:24.660Z,18.77
2018-08-23T12:32:52.975Z,19.50
2018-08-23T12:35:21.416Z,22.03
2018-08-23T12:38:02.435Z,19.60
2018-08-23T12:40:36.666Z,16.07
2018-08-23T12:43:07.648Z,17.43
2018-08-23T12:45:40.934Z,22.10
2018-08-23T12:48:10.539Z,19.73
2018-08-23T12:50:38.804Z,21.23
2018-08-23T12:53:07.046Z,18.77
2018-08-23T12:55:35.311Z,22.00
2018-08-23T12:58:04.760Z,22.37
2018-08-23T13:00:33.033Z,19.83
2018-08-23T13:03:01.315Z,15.73
2018-08-23T13:05:29.491Z,20.33
2018-08-23T13:07:57.797Z,17.73
2018-08-23T13:10:26.021Z,21.60
2018-08-23T13:12:54.263Z,22.37
2018-08-23T13:15:22.500Z,17.83
2018-08-23T13:17:50.718Z,22.30
2018-08-23T13:20:18.971Z,21.47
2018-08-23T13:22:47.182Z,18.23
2018-08-23T13:25:15.631Z,22.10
2018-08-23T13:27:44.008Z,20.70
2018-08-23T13:30:12.139Z,18.60
2018-08-23T13:32:40.356Z,18.53
2018-08-23T13:35:08.623Z,18.27
2018-08-23T13:37:36.907Z,19.63
2018-08-23T13:40:05.462Z,20.00
2018-08-23T13:42:33.704Z,20.17
2018-08-23T13:45:02.166Z,19.50
2018-08-23T13:47:30.452Z,18.27
2018-08-23T13:49:58.711Z,17.97
2018-08-23T13:52:26.926Z,17.20
2018-08-23T13:54:55.306Z,18.30
2018-08-23T13:57:23.538Z,17.70
2018-08-23T13:59:51.763Z,18.50
2018-08-23T14:02:20.007Z,18.77
2018-08-23T14:04:48.212Z,19.00
2018-08-23T14:07:16.484Z,18.50
2018-08-23T14:09:44.739Z,17.67
2018-08-23T14:12:12.967Z,18.53
2018-08-23T14:14:41.199Z,17.97
2018-08-23T14:17:09.467Z,18.30
2018-08-23T14:19:37.713Z,19.60
2018-08-23T14:22:05.947Z,17.97
2018-08-23T14:24:34.187Z,17.67
2018-08-23T14:27:02.442Z,20.20
2018-08-23T14:29:30.809Z,17.47
2018-08-23T14:31:59.445Z,19.30
2018-08-23T14:34:27.798Z,19.00
2018-08-23T14:36:56.168Z,18.97
2018-08-23T14:39:24.460Z,17.60
2018-08-23T14:41:52.710Z,19.97
2018-08-23T14:44:21.016Z,17.13
2018-08-23T14:46:54.491Z,18.53
2018-08-23T14:49:28.207Z,18.50
2018-08-23T14:51:56.446Z,18.30
2018-08-23T14:54:30.090Z,20.47
2018-08-23T14:57:36.158Z,18.97
2018-08-23T15:00:04.513Z,18.37
2018-08-23T15:02:32.791Z,15.77
2018-08-23T15:05:00.975Z,17.87
2018-08-23T15:07:29.257Z,18.03
2018-08-23T15:09:57.470Z,15.67
2018-08-23T15:12:25.868Z,13.80
2018-08-23T15:14:54.302Z,13.67
2018-08-23T15:17:22.545Z,16.40
2018-08-23T15:19:50.777Z,16.53
2018-08-23T15:22:18.992Z,15.87
2018-08-23T15:24:47.259Z,16.43
2018-08-23T15:27:15.545Z,15.37
2018-08-23T15:29:43.708Z,16.67
2018-08-23T15:32:11.959Z,17.70
2018-08-23T15:34:40.198Z,14.27
2018-08-23T15:37:08.406Z,14.80
2018-08-23T15:39:36.699Z,13.60
2018-08-23T15:42:04.947Z,14.77
2018-08-23T15:44:33.367Z,13.50
2018-08-23T15:47:01.618Z,13.57
2018-08-23T15:49:29.852Z,13.20
2018-08-23T15:51:58.174Z,14.97
2018-08-23T15:54:26.390Z,14.47
2018-08-23T15:56:54.625Z,10.07
2018-08-23T15:59:22.876Z,12.23
2018-08-23T16:01:51.103Z,12.77
2018-08-23T16:04:19.367Z,12.70
2018-08-23T16:06:47.570Z,12.30
2018-08-23T16:09:15.837Z,9.83
2018-08-23T16:11:44.085Z,10.50
2018-08-23T16:14:12.487Z,10.00
2018-08-23T16:16:45.993Z,11.77
2018-08-23T16:19:19.861Z,10.80
2018-08-23T16:21:53.403Z,10.40
2018-08-23T16:24:21.636Z,8.47
2018-08-23T16:26:55.179Z,10.07
2018-08-23T16:29:25.392Z,9.63
2018-08-23T16:31:53.641Z,9.00
2018-08-23T16:34:21.884Z,9.90
2018-08-23T16:36:50.135Z,10.97
2018-08-23T16:39:18.387Z,11.00
2018-08-23T16:41:46.870Z,10.67
2018-08-23T16:44:15.118Z,9.40
2018-08-23T16:46:43.403Z,8.97
2018-08-23T16:49:11.627Z,8.83
2018-08-23T16:51:39.842Z,8.20
2018-08-23T16:54:16.568Z,8.80
2018-08-23T16:56:46.408Z,7.27
2018-08-23T16:59:20.030Z,8.33
2018-08-23T17:01:57.562Z,7.90
2018-08-23T17:04:34.001Z,8.20
2018-08-23T17:07:06.599Z,9.40
2018-08-23T17:09:38.810Z,7.50
2018-08-23T17:12:08.445Z,7.93
2018-08-23T17:14:41.763Z,7.27
2018-08-23T17:17:19.700Z,7.60
2018-08-23T17:19:50.491Z,7.87
2018-08-23T17:22:25.114Z,7.80
2018-08-23T17:24:57.623Z,8.37
2018-08-23T17:27:26.054Z,8.00
2018-08-23T17:29:54.303Z,7.43
2018-08-23T17:32:22.547Z,8.47
2018-08-23T17:34:50.971Z,7.20
2018-08-23T17:37:19.196Z,7.17
2018-08-23T17:39:47.480Z,7.50
2018-08-23T17:42:15.683Z,7.30
2018-08-23T17:44:43.895Z,6.43
2018-08-23T17:47:12.215Z,6.80
2018-08-23T17:49:40.461Z,6.47
2018-08-23T17:52:08.695Z,6.33
2018-08-23T17:54:36.940Z,6.10
2018-08-23T17:57:05.203Z,6.10
2018-08-23T17:59:33.515Z,6.13
2018-08-23T18:02:01.728Z,5.67
2018-08-23T18:04:30.136Z,5.50
2018-08-23T18:06:58.416Z,5.53
2018-08-23T18:09:26.660Z,5.90
2018-08-23T18:11:54.928Z,4.60
2018-08-23T18:14:23.215Z,5.47
2018-08-23T18:16:56.857Z,5.00
2018-08-23T18:19:25.113Z,6.00
2018-08-23T18:21:53.679Z,4.80
2018-08-23T18:24:21.991Z,5.17
2018-08-23T18:26:50.208Z,5.00
2018-08-23T18:29:18.412Z,4.40
2018-08-23T18:31:46.651Z,5.43
2018-08-23T18:34:14.911Z,5.53
2018-08-23T18:36:43.299Z,5.20
2018-08-23T18:39:11.867Z,5.23
2018-08-23T18:41:40.730Z,5.13
2018-08-23T18:44:09.095Z,5.57
2018-08-23T18:46:37.355Z,5.07
2018-08-23T18:49:06.089Z,5.77
2018-08-23T18:51:35.019Z,4.63
2018-08-23T18:54:04.125Z,4.13
2018-08-23T18:56:34.048Z,4.80
2018-08-23T18:59:02.620Z,4.20
2018-08-23T19:01:31.399Z,4.50
2018-08-23T19:06:41.235Z,4.23
2018-08-23T19:09:13.012Z,4.77
2018-08-23T19:11:42.515Z,4.70
2018-08-23T19:14:11.386Z,5.03
2018-08-23T19:16:45.324Z,4.03
2018-08-23T19:19:13.966Z,5.07
2018-08-23T19:21:42.371Z,4.77
2018-08-23T19:24:10.758Z,5.10
2018-08-23T19:26:39.766Z,4.90
2018-08-23T19:29:08.354Z,5.70
2018-08-23T19:31:37.448Z,4.63
2018-08-23T19:34:06.421Z,4.10
2018-08-23T19:36:35.366Z,4.60
2018-08-23T19:39:05.846Z,3.77
2018-08-23T19:41:35.395Z,3.93
2018-08-23T19:44:04.277Z,4.50
2018-08-23T19:46:38.084Z,4.27
2018-08-23T19:49:11.990Z,3.87
2018-08-23T19:51:42.066Z,4.20
2018-08-23T19:54:10.650Z,4.20
2018-08-23T19:56:39.497Z,4.13
2018-08-23T19:59:08.270Z,3.90
2018-08-23T20:01:37.476Z,5.17
2018-08-23T20:04:06.519Z,4.37
2018-08-23T20:06:35.670Z,4.07
2018-08-23T20:09:06.092Z,3.80
2018-08-23T20:11:35.003Z,3.70
2018-08-23T20:14:04.012Z,4.10
2018-08-23T20:16:33.048Z,4.00
2018-08-23T20:19:01.764Z,4.60
2018-08-23T20:21:30.835Z,4.60
2018-08-23T20:23:59.059Z,4.53
2018-08-23T20:26:27.275Z,4.77
2018-08-23T20:28:55.543Z,4.73
2018-08-23T20:31:23.758Z,4.10
2018-08-23T20:33:51.980Z,4.10
2018-08-23T20:36:20.240Z,4.03
2018-08-23T20:38:50.072Z,4.13
2018-08-23T20:41:18.587Z,3.50
2018-08-23T20:43:47.121Z,4.23
2018-08-23T20:46:15.351Z,4.60
2018-08-23T20:48:43.684Z,3.53
2018-08-23T20:51:11.947Z,3.33
2018-08-23T20:53:40.765Z,3.47
2018-08-23T20:56:08.997Z,3.10
2018-08-23T20:58:37.996Z,3.77
2018-08-23T21:01:06.215Z,4.47
2018-08-23T21:03:34.843Z,4.00
2018-08-23T21:06:03.051Z,4.07
2018-08-23T21:08:31.333Z,3.37
2018-08-23T21:10:59.539Z,2.67
2018-08-23T21:13:27.811Z,3.10
2018-08-23T21:15:56.030Z,3.63
2018-08-23T21:18:24.259Z,4.40
2018-08-23T21:20:52.503Z,4.67
2018-08-23T21:23:20.761Z,4.93
2018-08-23T21:25:48.960Z,4.37
2018-08-23T21:28:17.193Z,5.20
2018-08-23T21:30:45.795Z,2.70
2018-08-23T21:33:14.020Z,2.60
2018-08-23T21:35:42.242Z,4.30
2018-08-23T21:38:10.406Z,4.53
2018-08-23T21:40:38.657Z,2.57
2018-08-23T21:43:06.989Z,3.77
2018-08-23T21:45:35.223Z,4.33
2018-08-23T21:48:03.430Z,4.00
2018-08-23T21:50:31.648Z,4.13
2018-08-23T21:52:59.871Z,6.00
2018-08-23T21:55:33.367Z,5.07
2018-08-23T21:58:01.644Z,5.40
2018-08-23T22:00:34.071Z,8.37
2018-08-23T22:03:02.299Z,10.60
2018-08-23T22:05:30.648Z,9.20
2018-08-23T22:07:58.871Z,13.87
2018-08-23T22:10:27.098Z,11.90
2018-08-23T22:12:55.336Z,13.40
2018-08-23T22:15:23.598Z,10.20
2018-08-23T22:17:51.754Z,10.70
2018-08-23T22:20:20.004Z,9.77
2018-08-23T22:22:48.236Z,10.30
2018-08-23T22:25:16.465Z,9.70
2018-08-23T22:27:44.690Z,9.07
2018-08-23T22:30:12.902Z,10.20
2018-08-23T22:32:41.166Z,9.57
2018-08-23T22:35:09.608Z,8.70
2018-08-23T22:37:37.841Z,8.70
2018-08-23T22:40:06.165Z,7.37
2018-08-23T22:42:34.383Z,8.53
2018-08-23T22:45:02.704Z,8.57
2018-08-23T22:47:30.904Z,9.07
2018-08-23T22:49:59.164Z,6.33
2018-08-23T22:52:27.338Z,5.97
2018-08-23T22:54:55.550Z,6.17
2018-08-23T22:57:23.815Z,6.50
2018-08-23T22:59:52.102Z,5.10
2018-08-23T23:02:25.691Z,6.40
2018-08-23T23:04:54.035Z,6.40
2018-08-23T23:07:22.259Z,5.73
2018-08-23T23:09:50.504Z,6.27
2018-08-23T23:12:18.718Z,5.77
2018-08-23T23:14:46.948Z,7.57
2018-08-23T23:17:21.555Z,6.53
2018-08-23T23:19:49.787Z,7.90
2018-08-23T23:22:18.006Z,7.80
2018-08-23T23:24:51.623Z,7.10
2018-08-23T23:27:19.894Z,6.63
2018-08-23T23:29:48.126Z,7.43
2018-08-23T23:32:16.360Z,7.80
2018-08-23T23:34:44.636Z,8.03
2018-08-23T23:37:12.882Z,8.00
2018-08-23T23:39:41.115Z,7.80
2018-08-23T23:42:09.344Z,7.87
2018-08-23T23:44:37.595Z,6.70
2018-08-23T23:47:05.759Z,9.30
2018-08-23T23:49:34.202Z,9.10
2018-08-23T23:52:02.401Z,7.90
2018-08-23T23:54:30.628Z,9.07
2018-08-23T23:56:58.854Z,7.77
2018-08-23T23:59:27.040Z,9.30
